sensor_id;sensor_type;location;lat;lon;timestamp;P1;durP1;ratioP1;P2;durP2;ratioP2
4569;SDS011;2297;51.442;6.996;2023-08-17T00:01:03;8.10;;;4.25;;
4569;SDS011;2297;51.442;6.996;2023-08-17T00:03:29;6.82;;;4.78;;
4569;SDS011;2297;51.442;6.996;2023-08-17T00:05:56;6.35;;;4.20;;
4569;SDS011;2297;51.442;6.996;2023-08-17T00:08:23;5.45;;;4.18;;
4569;SDS011;2297;51.442;6.996;2023-08-17T00:10:50;5.95;;;4.10;;
4569;SDS011;2297;51.442;6.996;2023-08-17T00:13:16;7.63;;;4.40;;
4569;SDS011;2297;51.442;6.996;2023-08-17T00:15:43;6.97;;;4.32;;
4569;SDS011;2297;51.442;6.996;2023-08-17T00:18:11;8.13;;;4.20;;
4569;SDS011;2297;51.442;6.996;2023-08-17T00:20:38;6.90;;;4.53;;
4569;SDS011;2297;51.442;6.996;2023-08-17T00:23:05;8.63;;;4.47;;
4569;SDS011;2297;51.442;6.996;2023-08-17T00:25:31;5.00;;;3.90;;
4569;SDS011;2297;51.442;6.996;2023-08-17T00:27:58;5.32;;;3.80;;
4569;SDS011;2297;51.442;6.996;2023-08-17T00:30:25;6.30;;;4.50;;
4569;SDS011;2297;51.442;6.996;2023-08-17T00:32:51;6.47;;;4.15;;
4569;SDS011;2297;51.442;6.996;2023-08-17T00:35:19;5.00;;;3.40;;
4569;SDS011;2297;51.442;6.996;2023-08-17T00:37:46;6.13;;;3.80;;
4569;SDS011;2297;51.442;6.996;2023-08-17T00:40:13;4.40;;;3.45;;
4569;SDS011;2297;51.442;6.996;2023-08-17T00:42:40;4.47;;;3.70;;
4569;SDS011;2297;51.442;6.996;2023-08-17T00:45:06;5.57;;;3.67;;
4569;SDS011;2297;51.442;6.996;2023-08-17T00:47:34;4.82;;;3.90;;
4569;SDS011;2297;51.442;6.996;2023-08-17T00:50:00;4.75;;;3.85;;
4569;SDS011;2297;51.442;6.996;2023-08-17T00:52:29;4.57;;;3.80;;
4569;SDS011;2297;51.442;6.996;2023-08-17T00:54:58;4.35;;;3.50;;
4569;SDS011;2297;51.442;6.996;2023-08-17T00:57:27;5.38;;;3.70;;
4569;SDS011;2297;51.442;6.996;2023-08-17T00:59:54;6.68;;;4.28;;
4569;SDS011;2297;51.442;6.996;2023-08-17T01:02:21;5.85;;;3.70;;
4569;SDS011;2297;51.442;6.996;2023-08-17T01:04:48;10.32;;;4.43;;
4569;SDS011;2297;51.442;6.996;2023-08-17T01:07:15;7.55;;;4.35;;
4569;SDS011;2297;51.442;6.996;2023-08-17T01:09:43;5.90;;;4.32;;
4569;SDS011;2297;51.442;6.996;2023-08-17T01:12:13;7.68;;;4.70;;
4569;SDS011;2297;51.442;6.996;2023-08-17T01:14:48;7.15;;;4.78;;
4569;SDS011;2297;51.442;6.996;2023-08-17T01:17:22;8.85;;;4.55;;
4569;SDS011;2297;51.442;6.996;2023-08-17T01:19:52;5.80;;;4.75;;
4569;SDS011;2297;51.442;6.996;2023-08-17T01:22:21;6.90;;;4.30;;
4569;SDS011;2297;51.442;6.996;2023-08-17T01:24:49;7.25;;;5.18;;
4569;SDS011;2297;51.442;6.996;2023-08-17T01:27:22;11.38;;;5.22;;
4569;SDS011;2297;51.442;6.996;2023-08-17T01:29:49;6.88;;;4.53;;
4569;SDS011;2297;51.442;6.996;2023-08-17T01:32:21;5.88;;;4.18;;
4569;SDS011;2297;51.442;6.996;2023-08-17T01:34:54;7.25;;;4.63;;
4569;SDS011;2297;51.442;6.996;2023-08-17T01:37:25;6.72;;;4.63;;
4569;SDS011;2297;51.442;6.996;2023-08-17T01:39:56;6.05;;;4.82;;
4569;SDS011;2297;51.442;6.996;2023-08-17T01:42:25;6.72;;;4.30;;
4569;SDS011;2297;51.442;6.996;2023-08-17T01:44:52;7.00;;;4.85;;
4569;SDS011;2297;51.442;6.996;2023-08-17T01:47:20;5.82;;;4.28;;
4569;SDS011;2297;51.442;6.996;2023-08-17T01:49:47;5.18;;;4.00;;
4569;SDS011;2297;51.442;6.996;2023-08-17T01:52:14;8.63;;;4.20;;
4569;SDS011;2297;51.442;6.996;2023-08-17T01:54:41;8.45;;;4.95;;
4569;SDS011;2297;51.442;6.996;2023-08-17T01:57:09;7.00;;;4.57;;
4569;SDS011;2297;51.442;6.996;2023-08-17T01:59:36;8.02;;;4.43;;
4569;SDS011;2297;51.442;6.996;2023-08-17T02:02:03;7.18;;;4.72;;
4569;SDS011;2297;51.442;6.996;2023-08-17T02:04:29;8.52;;;4.57;;
4569;SDS011;2297;51.442;6.996;2023-08-17T02:06:56;6.88;;;4.50;;
4569;SDS011;2297;51.442;6.996;2023-08-17T02:09:22;7.35;;;4.82;;
4569;SDS011;2297;51.442;6.996;2023-08-17T02:11:49;8.48;;;4.22;;
4569;SDS011;2297;51.442;6.996;2023-08-17T02:14:17;10.50;;;4.93;;
4569;SDS011;2297;51.442;6.996;2023-08-17T02:16:44;6.45;;;4.32;;
4569;SDS011;2297;51.442;6.996;2023-08-17T02:19:10;6.32;;;4.28;;
4569;SDS011;2297;51.442;6.996;2023-08-17T02:21:37;7.93;;;4.50;;
4569;SDS011;2297;51.442;6.996;2023-08-17T02:24:04;9.43;;;5.05;;
4569;SDS011;2297;51.442;6.996;2023-08-17T02:26:31;6.68;;;4.43;;
4569;SDS011;2297;51.442;6.996;2023-08-17T02:28:58;7.25;;;4.40;;
4569;SDS011;2297;51.442;6.996;2023-08-17T02:31:26;7.93;;;5.07;;
4569;SDS011;2297;51.442;6.996;2023-08-17T02:33:53;6.65;;;4.82;;
4569;SDS011;2297;51.442;6.996;2023-08-17T02:36:23;13.88;;;4.78;;
4569;SDS011;2297;51.442;6.996;2023-08-17T02:38:49;8.52;;;5.05;;
4569;SDS011;2297;51.442;6.996;2023-08-17T02:41:16;8.02;;;5.00;;
4569;SDS011;2297;51.442;6.996;2023-08-17T02:43:43;8.32;;;4.95;;
4569;SDS011;2297;51.442;6.996;2023-08-17T02:46:09;9.40;;;4.88;;
4569;SDS011;2297;51.442;6.996;2023-08-17T02:48:37;5.93;;;4.38;;
4569;SDS011;2297;51.442;6.996;2023-08-17T02:51:04;11.15;;;5.03;;
4569;SDS011;2297;51.442;6.996;2023-08-17T02:53:30;5.65;;;4.70;;
4569;SDS011;2297;51.442;6.996;2023-08-17T02:55:57;12.88;;;5.28;;
4569;SDS011;2297;51.442;6.996;2023-08-17T02:58:24;9.52;;;4.63;;
4569;SDS011;2297;51.442;6.996;2023-08-17T03:00:50;6.22;;;4.88;;
4569;SDS011;2297;51.442;6.996;2023-08-17T03:03:17;7.97;;;5.65;;
4569;SDS011;2297;51.442;6.996;2023-08-17T03:05:45;8.13;;;5.45;;
4569;SDS011;2297;51.442;6.996;2023-08-17T03:08:12;10.70;;;4.97;;
4569;SDS011;2297;51.442;6.996;2023-08-17T03:10:39;7.72;;;6.10;;
4569;SDS011;2297;51.442;6.996;2023-08-17T03:13:05;8.45;;;7.28;;
4569;SDS011;2297;51.442;6.996;2023-08-17T03:15:32;10.80;;;6.97;;
4569;SDS011;2297;51.442;6.996;2023-08-17T03:17:59;23.83;;;8.30;;
4569;SDS011;2297;51.442;6.996;2023-08-17T03:20:25;15.77;;;7.80;;
4569;SDS011;2297;51.442;6.996;2023-08-17T03:22:53;10.55;;;7.00;;
4569;SDS011;2297;51.442;6.996;2023-08-17T03:25:20;7.57;;;6.60;;
4569;SDS011;2297;51.442;6.996;2023-08-17T03:27:47;11.02;;;6.90;;
4569;SDS011;2297;51.442;6.996;2023-08-17T03:30:13;12.20;;;7.22;;
4569;SDS011;2297;51.442;6.996;2023-08-17T03:32:40;12.00;;;7.28;;
4569;SDS011;2297;51.442;6.996;2023-08-17T03:35:07;8.55;;;5.70;;
4569;SDS011;2297;51.442;6.996;2023-08-17T03:37:51;9.75;;;6.05;;
4569;SDS011;2297;51.442;6.996;2023-08-17T03:40:32;6.72;;;5.35;;
4569;SDS011;2297;51.442;6.996;2023-08-17T03:42:59;7.25;;;5.55;;
4569;SDS011;2297;51.442;6.996;2023-08-17T03:45:26;7.75;;;5.10;;
4569;SDS011;2297;51.442;6.996;2023-08-17T03:47:52;9.15;;;5.65;;
4569;SDS011;2297;51.442;6.996;2023-08-17T03:50:19;8.45;;;4.82;;
4569;SDS011;2297;51.442;6.996;2023-08-17T03:52:45;7.53;;;4.10;;
4569;SDS011;2297;51.442;6.996;2023-08-17T03:55:12;10.18;;;5.10;;
4569;SDS011;2297;51.442;6.996;2023-08-17T03:57:40;26.40;;;14.75;;
4569;SDS011;2297;51.442;6.996;2023-08-17T04:00:07;15.77;;;8.88;;
4569;SDS011;2297;51.442;6.996;2023-08-17T04:02:35;8.93;;;4.95;;
4569;SDS011;2297;51.442;6.996;2023-08-17T04:05:03;8.45;;;5.25;;
4569;SDS011;2297;51.442;6.996;2023-08-17T04:07:30;14.23;;;6.05;;
4569;SDS011;2297;51.442;6.996;2023-08-17T04:09:56;9.50;;;5.18;;
4569;SDS011;2297;51.442;6.996;2023-08-17T04:12:23;9.13;;;5.13;;
4569;SDS011;2297;51.442;6.996;2023-08-17T04:14:51;10.15;;;5.13;;
4569;SDS011;2297;51.442;6.996;2023-08-17T04:17:18;10.32;;;5.22;;
4569;SDS011;2297;51.442;6.996;2023-08-17T04:19:46;10.52;;;5.68;;
4569;SDS011;2297;51.442;6.996;2023-08-17T04:22:12;10.85;;;6.47;;
4569;SDS011;2297;51.442;6.996;2023-08-17T04:24:39;11.73;;;6.50;;
4569;SDS011;2297;51.442;6.996;2023-08-17T04:27:06;8.65;;;5.80;;
4569;SDS011;2297;51.442;6.996;2023-08-17T04:29:32;11.73;;;5.82;;
4569;SDS011;2297;51.442;6.996;2023-08-17T04:32:00;18.15;;;6.05;;
4569;SDS011;2297;51.442;6.996;2023-08-17T04:34:27;11.57;;;6.07;;
4569;SDS011;2297;51.442;6.996;2023-08-17T04:36:54;9.07;;;5.88;;
4569;SDS011;2297;51.442;6.996;2023-08-17T04:39:20;8.82;;;5.82;;
4569;SDS011;2297;51.442;6.996;2023-08-17T04:41:47;8.48;;;5.53;;
4569;SDS011;2297;51.442;6.996;2023-08-17T04:44:14;11.27;;;5.65;;
4569;SDS011;2297;51.442;6.996;2023-08-17T04:46:40;9.63;;;6.20;;
4569;SDS011;2297;51.442;6.996;2023-08-17T04:49:08;8.20;;;5.38;;
4569;SDS011;2297;51.442;6.996;2023-08-17T04:51:35;15.18;;;5.60;;
4569;SDS011;2297;51.442;6.996;2023-08-17T04:54:02;45.20;;;22.65;;
4569;SDS011;2297;51.442;6.996;2023-08-17T04:56:29;11.63;;;7.22;;
4569;SDS011;2297;51.442;6.996;2023-08-17T04:58:56;9.55;;;6.32;;
4569;SDS011;2297;51.442;6.996;2023-08-17T05:01:22;11.32;;;5.43;;
4569;SDS011;2297;51.442;6.996;2023-08-17T05:03:49;9.35;;;5.72;;
4569;SDS011;2297;51.442;6.996;2023-08-17T05:06:18;10.82;;;5.93;;
4569;SDS011;2297;51.442;6.996;2023-08-17T05:08:44;14.73;;;5.95;;
4569;SDS011;2297;51.442;6.996;2023-08-17T05:11:11;9.63;;;5.93;;
4569;SDS011;2297;51.442;6.996;2023-08-17T05:13:38;10.05;;;6.15;;
4569;SDS011;2297;51.442;6.996;2023-08-17T05:16:05;11.20;;;6.28;;
4569;SDS011;2297;51.442;6.996;2023-08-17T05:18:31;13.45;;;6.55;;
4569;SDS011;2297;51.442;6.996;2023-08-17T05:20:58;15.13;;;6.82;;
4569;SDS011;2297;51.442;6.996;2023-08-17T05:23:26;16.35;;;8.32;;
4569;SDS011;2297;51.442;6.996;2023-08-17T05:25:53;13.20;;;7.43;;
4569;SDS011;2297;51.442;6.996;2023-08-17T05:28:20;11.65;;;7.40;;
4569;SDS011;2297;51.442;6.996;2023-08-17T05:30:47;8.18;;;6.70;;
4569;SDS011;2297;51.442;6.996;2023-08-17T05:33:14;14.48;;;6.90;;
4569;SDS011;2297;51.442;6.996;2023-08-17T05:35:41;10.45;;;6.85;;
4569;SDS011;2297;51.442;6.996;2023-08-17T05:38:09;13.90;;;6.90;;
4569;SDS011;2297;51.442;6.996;2023-08-17T05:40:37;16.60;;;7.80;;
4569;SDS011;2297;51.442;6.996;2023-08-17T05:43:03;13.20;;;7.75;;
4569;SDS011;2297;51.442;6.996;2023-08-17T05:45:30;11.15;;;6.68;;
4569;SDS011;2297;51.442;6.996;2023-08-17T05:47:57;12.65;;;6.47;;
4569;SDS011;2297;51.442;6.996;2023-08-17T05:50:23;12.10;;;6.95;;
4569;SDS011;2297;51.442;6.996;2023-08-17T05:52:50;13.35;;;6.78;;
4569;SDS011;2297;51.442;6.996;2023-08-17T05:55:17;9.82;;;5.70;;
4569;SDS011;2297;51.442;6.996;2023-08-17T05:57:45;9.90;;;5.50;;
4569;SDS011;2297;51.442;6.996;2023-08-17T06:00:12;7.45;;;4.85;;
4569;SDS011;2297;51.442;6.996;2023-08-17T06:02:40;8.20;;;5.00;;
4569;SDS011;2297;51.442;6.996;2023-08-17T06:05:07;13.25;;;6.25;;
4569;SDS011;2297;51.442;6.996;2023-08-17T06:07:34;13.10;;;7.25;;
4569;SDS011;2297;51.442;6.996;2023-08-17T06:10:03;17.98;;;7.05;;
4569;SDS011;2297;51.442;6.996;2023-08-17T06:12:31;16.13;;;7.13;;
4569;SDS011;2297;51.442;6.996;2023-08-17T06:14:59;19.35;;;6.85;;
4569;SDS011;2297;51.442;6.996;2023-08-17T06:17:25;13.75;;;7.13;;
4569;SDS011;2297;51.442;6.996;2023-08-17T06:19:52;9.30;;;6.45;;
4569;SDS011;2297;51.442;6.996;2023-08-17T06:22:19;11.30;;;6.53;;
4569;SDS011;2297;51.442;6.996;2023-08-17T06:24:45;14.07;;;6.72;;
4569;SDS011;2297;51.442;6.996;2023-08-17T06:27:13;15.63;;;7.40;;
4569;SDS011;2297;51.442;6.996;2023-08-17T06:29:40;13.82;;;7.72;;
4569;SDS011;2297;51.442;6.996;2023-08-17T06:32:09;13.55;;;7.22;;
4569;SDS011;2297;51.442;6.996;2023-08-17T06:34:35;11.23;;;7.10;;
4569;SDS011;2297;51.442;6.996;2023-08-17T06:37:02;14.13;;;7.40;;
4569;SDS011;2297;51.442;6.996;2023-08-17T06:39:30;19.67;;;8.43;;
4569;SDS011;2297;51.442;6.996;2023-08-17T06:41:57;14.55;;;7.93;;
4569;SDS011;2297;51.442;6.996;2023-08-17T06:44:23;15.95;;;8.70;;
4569;SDS011;2297;51.442;6.996;2023-08-17T06:46:50;11.70;;;7.60;;
4569;SDS011;2297;51.442;6.996;2023-08-17T06:49:18;15.45;;;8.98;;
4569;SDS011;2297;51.442;6.996;2023-08-17T06:51:45;18.10;;;10.07;;
4569;SDS011;2297;51.442;6.996;2023-08-17T06:54:11;15.35;;;9.07;;
4569;SDS011;2297;51.442;6.996;2023-08-17T06:56:38;17.50;;;9.52;;
4569;SDS011;2297;51.442;6.996;2023-08-17T06:59:04;16.17;;;8.82;;
4569;SDS011;2297;51.442;6.996;2023-08-17T07:01:32;17.90;;;8.50;;
4569;SDS011;2297;51.442;6.996;2023-08-17T07:03:58;20.33;;;10.23;;
4569;SDS011;2297;51.442;6.996;2023-08-17T07:06:26;15.25;;;9.55;;
4569;SDS011;2297;51.442;6.996;2023-08-17T07:08:54;20.95;;;9.75;;
4569;SDS011;2297;51.442;6.996;2023-08-17T07:11:21;18.48;;;9.90;;
4569;SDS011;2297;51.442;6.996;2023-08-17T07:13:48;19.35;;;10.55;;
4569;SDS011;2297;51.442;6.996;2023-08-17T07:16:15;20.02;;;10.82;;
4569;SDS011;2297;51.442;6.996;2023-08-17T07:18:41;17.52;;;10.30;;
4569;SDS011;2297;51.442;6.996;2023-08-17T07:21:08;19.25;;;10.35;;
4569;SDS011;2297;51.442;6.996;2023-08-17T07:23:36;17.80;;;10.23;;
4569;SDS011;2297;51.442;6.996;2023-08-17T07:26:03;19.23;;;10.80;;
4569;SDS011;2297;51.442;6.996;2023-08-17T07:28:29;20.58;;;10.85;;
4569;SDS011;2297;51.442;6.996;2023-08-17T07:30:56;16.27;;;10.38;;
4569;SDS011;2297;51.442;6.996;2023-08-17T07:33:23;21.63;;;11.13;;
4569;SDS011;2297;51.442;6.996;2023-08-17T07:35:49;22.13;;;10.82;;
4569;SDS011;2297;51.442;6.996;2023-08-17T07:38:18;20.70;;;11.32;;
4569;SDS011;2297;51.442;6.996;2023-08-17T07:40:46;19.00;;;10.95;;
4569;SDS011;2297;51.442;6.996;2023-08-17T07:43:13;23.00;;;12.63;;
4569;SDS011;2297;51.442;6.996;2023-08-17T07:45:39;19.60;;;11.68;;
4569;SDS011;2297;51.442;6.996;2023-08-17T07:48:06;23.67;;;12.50;;
4569;SDS011;2297;51.442;6.996;2023-08-17T07:50:33;23.52;;;11.68;;
4569;SDS011;2297;51.442;6.996;2023-08-17T07:53:00;21.20;;;11.50;;
4569;SDS011;2297;51.442;6.996;2023-08-17T07:55:26;20.10;;;11.88;;
4569;SDS011;2297;51.442;6.996;2023-08-17T07:57:54;18.30;;;11.48;;
4569;SDS011;2297;51.442;6.996;2023-08-17T08:00:21;18.55;;;10.25;;
4569;SDS011;2297;51.442;6.996;2023-08-17T08:02:48;19.00;;;11.13;;
4569;SDS011;2297;51.442;6.996;2023-08-17T08:05:15;18.67;;;11.57;;
4569;SDS011;2297;51.442;6.996;2023-08-17T08:07:41;19.73;;;10.70;;
4569;SDS011;2297;51.442;6.996;2023-08-17T08:10:08;16.58;;;10.27;;
4569;SDS011;2297;51.442;6.996;2023-08-17T08:12:35;18.75;;;10.80;;
4569;SDS011;2297;51.442;6.996;2023-08-17T08:15:03;16.65;;;10.48;;
4569;SDS011;2297;51.442;6.996;2023-08-17T08:17:31;17.75;;;12.52;;
4569;SDS011;2297;51.442;6.996;2023-08-17T08:19:57;21.48;;;11.70;;
4569;SDS011;2297;51.442;6.996;2023-08-17T08:22:24;16.10;;;11.50;;
4569;SDS011;2297;51.442;6.996;2023-08-17T08:24:51;17.75;;;11.52;;
4569;SDS011;2297;51.442;6.996;2023-08-17T08:27:18;17.67;;;10.98;;
4569;SDS011;2297;51.442;6.996;2023-08-17T08:29:45;14.93;;;9.48;;
4569;SDS011;2297;51.442;6.996;2023-08-17T08:32:13;18.85;;;11.85;;
4569;SDS011;2297;51.442;6.996;2023-08-17T08:34:40;24.65;;;12.68;;
4569;SDS011;2297;51.442;6.996;2023-08-17T08:37:06;21.95;;;11.85;;
4569;SDS011;2297;51.442;6.996;2023-08-17T08:39:33;20.83;;;11.52;;
4569;SDS011;2297;51.442;6.996;2023-08-17T08:42:14;19.50;;;11.38;;
4569;SDS011;2297;51.442;6.996;2023-08-17T08:44:41;20.27;;;11.13;;
4569;SDS011;2297;51.442;6.996;2023-08-17T08:47:08;20.13;;;12.45;;
4569;SDS011;2297;51.442;6.996;2023-08-17T08:49:38;17.33;;;11.30;;
4569;SDS011;2297;51.442;6.996;2023-08-17T08:52:07;20.23;;;12.30;;
4569;SDS011;2297;51.442;6.996;2023-08-17T08:57:56;17.98;;;11.38;;
4569;SDS011;2297;51.442;6.996;2023-08-17T09:00:24;16.73;;;10.95;;
4569;SDS011;2297;51.442;6.996;2023-08-17T09:02:52;17.83;;;11.25;;
4569;SDS011;2297;51.442;6.996;2023-08-17T09:05:21;17.73;;;10.90;;
4569;SDS011;2297;51.442;6.996;2023-08-17T09:07:48;17.05;;;10.73;;
4569;SDS011;2297;51.442;6.996;2023-08-17T09:10:15;20.67;;;11.45;;
4569;SDS011;2297;51.442;6.996;2023-08-17T09:12:43;21.48;;;11.50;;
4569;SDS011;2297;51.442;6.996;2023-08-17T09:15:11;15.52;;;10.63;;
4569;SDS011;2297;51.442;6.996;2023-08-17T09:17:37;15.32;;;11.18;;
4569;SDS011;2297;51.442;6.996;2023-08-17T09:20:05;22.73;;;12.02;;
4569;SDS011;2297;51.442;6.996;2023-08-17T09:22:38;20.30;;;11.60;;
4569;SDS011;2297;51.442;6.996;2023-08-17T09:25:06;21.13;;;12.02;;
4569;SDS011;2297;51.442;6.996;2023-08-17T09:27:33;18.83;;;10.75;;
4569;SDS011;2297;51.442;6.996;2023-08-17T09:30:01;18.92;;;10.60;;
4569;SDS011;2297;51.442;6.996;2023-08-17T09:32:29;18.17;;;10.98;;
4569;SDS011;2297;51.442;6.996;2023-08-17T09:34:56;16.52;;;10.45;;
4569;SDS011;2297;51.442;6.996;2023-08-17T09:37:23;17.77;;;11.15;;
4569;SDS011;2297;51.442;6.996;2023-08-17T09:39:51;17.45;;;10.73;;
4569;SDS011;2297;51.442;6.996;2023-08-17T09:42:17;26.83;;;11.00;;
4569;SDS011;2297;51.442;6.996;2023-08-17T09:44:44;19.35;;;12.05;;
4569;SDS011;2297;51.442;6.996;2023-08-17T09:47:12;19.95;;;13.35;;
4569;SDS011;2297;51.442;6.996;2023-08-17T09:49:39;22.75;;;14.05;;
4569;SDS011;2297;51.442;6.996;2023-08-17T09:52:06;22.65;;;14.10;;
4569;SDS011;2297;51.442;6.996;2023-08-17T09:54:33;20.65;;;13.07;;
4569;SDS011;2297;51.442;6.996;2023-08-17T09:57:01;19.42;;;12.13;;
4569;SDS011;2297;51.442;6.996;2023-08-17T09:59:28;22.42;;;13.32;;
4569;SDS011;2297;51.442;6.996;2023-08-17T10:01:55;15.52;;;11.27;;
4569;SDS011;2297;51.442;6.996;2023-08-17T10:04:24;16.20;;;10.63;;
4569;SDS011;2297;51.442;6.996;2023-08-17T10:06:56;18.33;;;12.05;;
4569;SDS011;2297;51.442;6.996;2023-08-17T10:09:28;20.08;;;10.40;;
4569;SDS011;2297;51.442;6.996;2023-08-17T10:11:58;15.98;;;10.52;;
4569;SDS011;2297;51.442;6.996;2023-08-17T10:14:32;15.20;;;10.27;;
4569;SDS011;2297;51.442;6.996;2023-08-17T10:17:05;15.73;;;10.32;;
4569;SDS011;2297;51.442;6.996;2023-08-17T10:19:41;17.75;;;10.77;;
4569;SDS011;2297;51.442;6.996;2023-08-17T10:22:11;19.42;;;11.32;;
4569;SDS011;2297;51.442;6.996;2023-08-17T10:24:42;16.27;;;10.73;;
4569;SDS011;2297;51.442;6.996;2023-08-17T10:27:12;22.77;;;12.10;;
4569;SDS011;2297;51.442;6.996;2023-08-17T10:29:40;16.20;;;10.52;;
4569;SDS011;2297;51.442;6.996;2023-08-17T10:32:09;18.33;;;11.57;;
4569;SDS011;2297;51.442;6.996;2023-08-17T10:34:38;18.20;;;12.30;;
4569;SDS011;2297;51.442;6.996;2023-08-17T10:37:05;21.73;;;13.13;;
4569;SDS011;2297;51.442;6.996;2023-08-17T10:39:33;16.98;;;11.85;;
4569;SDS011;2297;51.442;6.996;2023-08-17T10:42:02;16.15;;;10.70;;
4569;SDS011;2297;51.442;6.996;2023-08-17T10:44:40;14.70;;;9.82;;
4569;SDS011;2297;51.442;6.996;2023-08-17T10:47:22;16.83;;;10.32;;
4569;SDS011;2297;51.442;6.996;2023-08-17T10:49:50;19.02;;;10.35;;
4569;SDS011;2297;51.442;6.996;2023-08-17T10:52:28;15.27;;;10.20;;
4569;SDS011;2297;51.442;6.996;2023-08-17T10:54:58;18.70;;;10.85;;
4569;SDS011;2297;51.442;6.996;2023-08-17T10:57:29;13.40;;;9.75;;
4569;SDS011;2297;51.442;6.996;2023-08-17T11:02:58;14.52;;;10.45;;
4569;SDS011;2297;51.442;6.996;2023-08-17T11:05:39;17.08;;;10.63;;
4569;SDS011;2297;51.442;6.996;2023-08-17T11:08:08;19.13;;;10.57;;
4569;SDS011;2297;51.442;6.996;2023-08-17T11:10:36;19.75;;;10.05;;
4569;SDS011;2297;51.442;6.996;2023-08-17T11:13:03;17.13;;;9.55;;
4569;SDS011;2297;51.442;6.996;2023-08-17T11:15:37;14.55;;;8.93;;
4569;SDS011;2297;51.442;6.996;2023-08-17T11:18:07;14.07;;;9.57;;
4569;SDS011;2297;51.442;6.996;2023-08-17T11:20:35;15.20;;;10.10;;
4569;SDS011;2297;51.442;6.996;2023-08-17T11:23:04;16.85;;;10.85;;
4569;SDS011;2297;51.442;6.996;2023-08-17T11:25:31;16.85;;;11.18;;
4569;SDS011;2297;51.442;6.996;2023-08-17T11:27:59;16.88;;;11.93;;
4569;SDS011;2297;51.442;6.996;2023-08-17T11:30:26;16.33;;;11.10;;
4569;SDS011;2297;51.442;6.996;2023-08-17T11:32:55;20.30;;;11.20;;
4569;SDS011;2297;51.442;6.996;2023-08-17T11:35:22;17.10;;;11.65;;
4569;SDS011;2297;51.442;6.996;2023-08-17T11:37:49;18.17;;;11.75;;
4569;SDS011;2297;51.442;6.996;2023-08-17T11:40:16;39.35;;;13.55;;
4569;SDS011;2297;51.442;6.996;2023-08-17T11:42:44;24.02;;;11.35;;
4569;SDS011;2297;51.442;6.996;2023-08-17T11:45:12;27.27;;;13.32;;
4569;SDS011;2297;51.442;6.996;2023-08-17T11:47:39;19.00;;;12.70;;
4569;SDS011;2297;51.442;6.996;2023-08-17T11:50:10;25.15;;;14.02;;
4569;SDS011;2297;51.442;6.996;2023-08-17T11:52:38;22.23;;;13.40;;
4569;SDS011;2297;51.442;6.996;2023-08-17T11:55:05;22.45;;;14.25;;
4569;SDS011;2297;51.442;6.996;2023-08-17T11:57:35;27.48;;;14.90;;
4569;SDS011;2297;51.442;6.996;2023-08-17T12:00:02;24.60;;;14.15;;
4569;SDS011;2297;51.442;6.996;2023-08-17T12:02:32;25.73;;;15.85;;
4569;SDS011;2297;51.442;6.996;2023-08-17T12:05:03;23.80;;;13.70;;
4569;SDS011;2297;51.442;6.996;2023-08-17T12:07:32;27.95;;;15.10;;
4569;SDS011;2297;51.442;6.996;2023-08-17T12:09:59;26.02;;;16.50;;
4569;SDS011;2297;51.442;6.996;2023-08-17T12:12:28;32.20;;;15.85;;
4569;SDS011;2297;51.442;6.996;2023-08-17T12:14:55;23.33;;;15.48;;
4569;SDS011;2297;51.442;6.996;2023-08-17T12:17:23;29.70;;;16.45;;
4569;SDS011;2297;51.442;6.996;2023-08-17T12:19:53;28.20;;;17.02;;
4569;SDS011;2297;51.442;6.996;2023-08-17T12:22:23;26.80;;;16.25;;
4569;SDS011;2297;51.442;6.996;2023-08-17T12:24:53;27.60;;;16.25;;
4569;SDS011;2297;51.442;6.996;2023-08-17T12:27:21;24.17;;;14.68;;
4569;SDS011;2297;51.442;6.996;2023-08-17T12:29:48;22.25;;;13.25;;
4569;SDS011;2297;51.442;6.996;2023-08-17T12:32:17;75.90;;;27.10;;
4569;SDS011;2297;51.442;6.996;2023-08-17T12:34:44;40.72;;;17.23;;
4569;SDS011;2297;51.442;6.996;2023-08-17T12:37:11;27.70;;;14.05;;
4569;SDS011;2297;51.442;6.996;2023-08-17T12:39:38;23.83;;;13.15;;
4569;SDS011;2297;51.442;6.996;2023-08-17T12:42:06;27.02;;;13.90;;
4569;SDS011;2297;51.442;6.996;2023-08-17T12:44:33;23.88;;;14.32;;
4569;SDS011;2297;51.442;6.996;2023-08-17T12:47:00;21.30;;;13.52;;
4569;SDS011;2297;51.442;6.996;2023-08-17T12:49:26;22.15;;;13.70;;
4569;SDS011;2297;51.442;6.996;2023-08-17T12:51:53;24.30;;;13.88;;
4569;SDS011;2297;51.442;6.996;2023-08-17T12:54:20;21.80;;;13.63;;
4569;SDS011;2297;51.442;6.996;2023-08-17T12:56:46;48.10;;;29.55;;
4569;SDS011;2297;51.442;6.996;2023-08-17T12:59:14;24.55;;;15.35;;
4569;SDS011;2297;51.442;6.996;2023-08-17T13:01:41;26.63;;;13.98;;
4569;SDS011;2297;51.442;6.996;2023-08-17T13:04:08;22.23;;;13.35;;
4569;SDS011;2297;51.442;6.996;2023-08-17T13:06:35;17.88;;;11.35;;
4569;SDS011;2297;51.442;6.996;2023-08-17T13:09:01;23.83;;;13.95;;
4569;SDS011;2297;51.442;6.996;2023-08-17T13:11:28;24.02;;;15.27;;
4569;SDS011;2297;51.442;6.996;2023-08-17T13:13:55;23.48;;;16.00;;
4569;SDS011;2297;51.442;6.996;2023-08-17T13:16:23;27.10;;;15.00;;
4569;SDS011;2297;51.442;6.996;2023-08-17T13:18:49;27.48;;;17.02;;
4569;SDS011;2297;51.442;6.996;2023-08-17T13:21:16;46.42;;;18.88;;
4569;SDS011;2297;51.442;6.996;2023-08-17T13:23:44;30.13;;;18.02;;
4569;SDS011;2297;51.442;6.996;2023-08-17T13:26:11;27.40;;;17.40;;
4569;SDS011;2297;51.442;6.996;2023-08-17T13:28:38;24.75;;;17.63;;
4569;SDS011;2297;51.442;6.996;2023-08-17T13:31:04;29.48;;;17.77;;
4569;SDS011;2297;51.442;6.996;2023-08-17T13:33:32;29.90;;;17.95;;
4569;SDS011;2297;51.442;6.996;2023-08-17T13:35:59;25.50;;;15.80;;
4569;SDS011;2297;51.442;6.996;2023-08-17T13:38:26;26.23;;;15.27;;
4569;SDS011;2297;51.442;6.996;2023-08-17T13:40:53;33.90;;;20.13;;
4569;SDS011;2297;51.442;6.996;2023-08-17T13:43:19;31.40;;;18.35;;
4569;SDS011;2297;51.442;6.996;2023-08-17T13:45:46;22.58;;;14.90;;
4569;SDS011;2297;51.442;6.996;2023-08-17T13:48:12;29.95;;;15.10;;
4569;SDS011;2297;51.442;6.996;2023-08-17T13:50:40;21.85;;;14.10;;
4569;SDS011;2297;51.442;6.996;2023-08-17T13:53:07;20.27;;;12.55;;
4569;SDS011;2297;51.442;6.996;2023-08-17T13:55:34;18.85;;;11.95;;
4569;SDS011;2297;51.442;6.996;2023-08-17T13:58:00;19.05;;;13.38;;
4569;SDS011;2297;51.442;6.996;2023-08-17T14:00:27;20.10;;;14.00;;
4569;SDS011;2297;51.442;6.996;2023-08-17T14:02:54;24.60;;;15.10;;
4569;SDS011;2297;51.442;6.996;2023-08-17T14:05:21;17.70;;;12.85;;
4569;SDS011;2297;51.442;6.996;2023-08-17T14:07:49;24.00;;;13.85;;
4569;SDS011;2297;51.442;6.996;2023-08-17T14:10:16;21.90;;;13.73;;
4569;SDS011;2297;51.442;6.996;2023-08-17T14:12:43;18.58;;;13.23;;
4569;SDS011;2297;51.442;6.996;2023-08-17T14:15:09;20.35;;;12.95;;
4569;SDS011;2297;51.442;6.996;2023-08-17T14:17:36;22.45;;;12.68;;
4569;SDS011;2297;51.442;6.996;2023-08-17T14:20:03;17.15;;;12.07;;
4569;SDS011;2297;51.442;6.996;2023-08-17T14:22:30;19.40;;;12.80;;
4569;SDS011;2297;51.442;6.996;2023-08-17T14:24:58;18.80;;;12.05;;
4569;SDS011;2297;51.442;6.996;2023-08-17T14:27:25;17.30;;;11.80;;
4569;SDS011;2297;51.442;6.996;2023-08-17T14:29:52;70.68;;;41.55;;
4569;SDS011;2297;51.442;6.996;2023-08-17T14:32:18;23.15;;;15.25;;
4569;SDS011;2297;51.442;6.996;2023-08-17T14:34:45;16.73;;;11.95;;
4569;SDS011;2297;51.442;6.996;2023-08-17T14:37:12;17.50;;;11.68;;
4569;SDS011;2297;51.442;6.996;2023-08-17T14:39:39;16.02;;;11.90;;
4569;SDS011;2297;51.442;6.996;2023-08-17T14:42:07;16.25;;;11.43;;
4569;SDS011;2297;51.442;6.996;2023-08-17T14:44:34;17.38;;;12.18;;
4569;SDS011;2297;51.442;6.996;2023-08-17T14:47:01;13.70;;;10.98;;
4569;SDS011;2297;51.442;6.996;2023-08-17T14:49:28;18.83;;;11.05;;
4569;SDS011;2297;51.442;6.996;2023-08-17T14:51:55;17.05;;;11.82;;
4569;SDS011;2297;51.442;6.996;2023-08-17T14:54:22;18.05;;;11.88;;
4569;SDS011;2297;51.442;6.996;2023-08-17T14:56:50;18.40;;;12.35;;
4569;SDS011;2297;51.442;6.996;2023-08-17T14:59:18;19.05;;;13.10;;
4569;SDS011;2297;51.442;6.996;2023-08-17T15:01:44;24.20;;;15.60;;
4569;SDS011;2297;51.442;6.996;2023-08-17T15:04:11;27.83;;;16.73;;
4569;SDS011;2297;51.442;6.996;2023-08-17T15:06:38;24.75;;;15.68;;